Time;durP1;ratioP1;P1;durP2;ratioP2;P2;SDS_P1;SDS_P2;PMS_P1;PMS_P2;Temp;Humidity;BMP_temperature;BMP_pressure;BME280_temperature;BME280_humidity;BME280_pressure;Samples;Min_cycle;Max_cycle;Signal;HPM_P1;HPM_P2
2022/04/20 00:00:54;;;;;;;9.73;6.70;;;10.40;99.90;;;;;;5084410;28;20600;-79
2022/04/20 00:03:22;;;;;;;9.57;5.97;;;10.40;99.90;;;;;;5083603;28;20597;-79
2022/04/20 00:05:48;;;;;;;9.10;5.83;;;10.40;99.90;;;;;;5085509;28;20204;-78
2022/04/20 00:08:15;;;;;;;9.07;6.60;;;10.40;99.90;;;;;;5084181;28;20655;-79
2022/04/20 00:10:42;;;;;;;9.27;6.57;;;10.40;99.90;;;;;;5084723;28;20201;-77
2022/04/20 00:13:09;;;;;;;7.83;6.33;;;10.30;99.90;;;;;;5084017;28;20224;-75
2022/04/20 00:15:36;;;;;;;10.80;6.63;;;10.20;99.90;;;;;;5084331;28;20291;-76
2022/04/20 00:18:04;;;;;;;6.97;6.20;;;10.20;99.90;;;;;;5083911;28;20262;-75
2022/04/20 00:20:32;;;;;;;7.07;6.03;;;10.10;99.90;;;;;;5084302;28;20250;-76
2022/04/20 00:22:59;;;;;;;11.33;6.40;;;10.20;99.90;;;;;;5084092;28;20592;-75
2022/04/20 00:25:26;;;;;;;9.53;5.80;;;10.20;99.90;;;;;;5083672;28;20520;-76
2022/04/20 00:27:52;;;;;;;11.47;7.03;;;10.20;99.90;;;;;;5085088;28;20201;-75
2022/04/20 00:30:19;;;;;;;11.07;6.90;;;10.10;99.90;;;;;;5084156;28;20291;-76
2022/04/20 00:32:46;;;;;;;8.40;6.13;;;10.00;99.90;;;;;;5082983;28;20220;-75
2022/04/20 00:35:13;;;;;;;9.07;6.33;;;10.00;99.90;;;;;;5084896;28;20224;-76
2022/04/20 00:37:42;;;;;;;8.70;6.23;;;10.00;99.90;;;;;;5083845;28;20673;-75
2022/04/20 00:40:10;;;;;;;11.60;6.90;;;10.00;99.90;;;;;;5083602;28;20236;-76
2022/04/20 00:42:40;;;;;;;10.97;7.53;;;10.00;99.90;;;;;;5084149;28;20235;-76
2022/04/20 00:45:09;;;;;;;12.37;6.57;;;9.90;99.90;;;;;;5083820;28;20189;-77
2022/04/20 00:47:37;;;;;;;10.27;6.60;;;9.90;99.90;;;;;;5078851;28;20219;-76
2022/04/20 00:50:08;;;;;;;10.80;6.93;;;9.90;99.90;;;;;;5086398;28;20201;-74
2022/04/20 00:52:35;;;;;;;10.93;6.80;;;9.90;99.90;;;;;;5103829;28;20340;-78
2022/04/20 00:55:04;;;;;;;8.17;6.30;;;9.80;99.90;;;;;;5104784;28;20200;-79
2022/04/20 00:57:31;;;;;;;8.23;6.27;;;9.80;99.90;;;;;;5099934;28;20480;-77
2022/04/20 01:00:01;;;;;;;9.50;6.73;;;9.70;99.90;;;;;;5086277;28;20208;-79
2022/04/20 01:02:29;;;;;;;7.63;6.07;;;9.70;99.90;;;;;;5088995;28;20208;-76
2022/04/20 01:04:55;;;;;;;7.73;5.90;;;9.70;99.90;;;;;;5088331;28;20204;-77
2022/04/20 01:07:23;;;;;;;8.97;6.73;;;9.60;99.90;;;;;;5087083;28;20651;-77
2022/04/20 01:09:50;;;;;;;6.80;6.00;;;9.60;99.90;;;;;;5088417;28;20201;-77
2022/04/20 01:12:21;;;;;;;9.57;6.07;;;9.70;99.90;;;;;;5088507;28;20527;-78
2022/04/20 01:14:47;;;;;;;8.27;6.47;;;9.60;99.90;;;;;;5087218;28;20282;-78
2022/04/20 01:17:14;;;;;;;7.00;5.57;;;9.60;99.90;;;;;;5088243;28;20196;-80
2022/04/20 01:19:42;;;;;;;8.40;5.70;;;9.50;99.90;;;;;;5087980;28;20210;-78
2022/04/20 01:22:11;;;;;;;8.23;5.90;;;9.50;99.90;;;;;;5086577;28;20199;-80
2022/04/20 01:24:39;;;;;;;7.90;5.77;;;9.50;99.90;;;;;;5087507;28;20197;-78
2022/04/20 01:27:07;;;;;;;7.27;5.90;;;9.50;99.90;;;;;;5086208;28;20215;-80
2022/04/20 01:29:34;;;;;;;6.90;5.23;;;9.50;99.90;;;;;;5087254;28;20200;-79
2022/04/20 01:32:01;;;;;;;9.73;6.43;;;9.40;99.90;;;;;;5068030;28;20500;-78
2022/04/20 01:34:28;;;;;;;8.00;5.67;;;9.40;99.90;;;;;;5066810;28;20224;-78
2022/04/20 01:36:55;;;;;;;7.27;5.70;;;9.30;99.90;;;;;;5069675;28;20205;-77
2022/04/20 01:39:23;;;;;;;9.67;6.23;;;9.30;99.90;;;;;;5087054;28;20209;-77
2022/04/20 01:41:50;;;;;;;8.50;5.43;;;9.30;99.90;;;;;;5086681;28;20413;-79
2022/04/20 01:44:16;;;;;;;8.03;6.03;;;9.30;99.90;;;;;;5086729;28;20235;-79
2022/04/20 01:46:43;;;;;;;7.77;5.93;;;9.30;99.90;;;;;;5085629;28;20207;-79
2022/04/20 01:49:10;;;;;;;5.87;5.03;;;9.30;99.90;;;;;;5086337;28;20208;-76
2022/04/20 01:51:51;;;;;;;6.97;5.13;;;9.30;99.90;;;;;;5087251;28;20212;-77
2022/04/20 01:54:19;;;;;;;10.07;5.93;;;9.20;99.90;;;;;;5087065;28;20709;-77
2022/04/20 01:56:48;;;;;;;6.47;5.53;;;9.30;99.90;;;;;;5086472;28;20307;-78
2022/04/20 01:59:15;;;;;;;7.87;6.00;;;9.30;99.90;;;;;;5087087;28;20200;-77
2022/04/20 02:04:27;;;;;;;7.17;5.27;;;9.30;99.90;;;;;;5080363;28;20314;-77
2022/04/20 02:06:53;;;;;;;8.37;6.03;;;9.20;99.90;;;;;;5087510;28;20593;-78
2022/04/20 02:09:20;;;;;;;8.33;5.30;;;9.20;99.90;;;;;;5085800;28;20291;-78
2022/04/20 02:11:48;;;;;;;9.03;5.40;;;9.20;99.90;;;;;;5085828;28;20193;-77
2022/04/20 02:14:15;;;;;;;6.53;5.37;;;9.10;99.90;;;;;;5086426;28;20224;-77
2022/04/20 02:16:42;;;;;;;7.63;5.67;;;9.10;99.90;;;;;;5086445;28;20204;-78
2022/04/20 02:19:08;;;;;;;5.97;5.03;;;9.10;99.90;;;;;;5085262;28;20204;-79
2022/04/20 02:21:35;;;;;;;6.80;4.63;;;9.10;99.90;;;;;;5085803;28;20215;-77
2022/04/20 02:24:02;;;;;;;7.70;5.67;;;9.10;99.90;;;;;;5086490;28;20197;-78
2022/04/20 02:26:29;;;;;;;5.67;5.00;;;9.10;99.90;;;;;;5087224;28;20506;-78
2022/04/20 02:28:57;;;;;;;7.60;5.53;;;9.10;99.90;;;;;;5086169;28;20851;-77
2022/04/20 02:31:24;;;;;;;8.30;5.90;;;9.00;99.90;;;;;;5084528;28;20220;-78
2022/04/20 02:33:51;;;;;;;5.13;4.53;;;9.00;99.90;;;;;;5086666;28;20604;-77
2022/04/20 02:36:18;;;;;;;7.03;5.73;;;9.10;99.90;;;;;;5085237;28;20270;-78
2022/04/20 02:38:45;;;;;;;8.90;5.63;;;9.10;99.90;;;;;;5085933;28;20199;-77
2022/04/20 02:41:12;;;;;;;6.47;4.83;;;9.00;99.90;;;;;;5086013;28;20208;-78
2022/04/20 02:43:38;;;;;;;7.13;5.53;;;9.00;99.90;;;;;;5086272;28;20207;-77
2022/04/20 02:46:07;;;;;;;8.43;5.60;;;9.00;99.90;;;;;;5084874;28;20207;-77
2022/04/20 02:48:35;;;;;;;7.37;5.27;;;9.00;99.90;;;;;;5086148;28;20197;-78
2022/04/20 02:51:02;;;;;;;7.57;5.90;;;9.00;99.90;;;;;;5085963;28;20200;-78
2022/04/20 02:53:29;;;;;;;10.37;5.47;;;9.00;99.90;;;;;;5085350;28;20220;-77
2022/04/20 02:55:56;;;;;;;8.13;5.60;;;9.00;99.90;;;;;;5086584;28;20199;-78
2022/04/20 02:58:22;;;;;;;7.77;4.87;;;9.00;99.90;;;;;;5086283;28;20204;-79
2022/04/20 03:00:49;;;;;;;6.37;5.27;;;9.00;99.90;;;;;;5086593;28;20193;-77
2022/04/20 03:03:17;;;;;;;7.57;5.17;;;9.00;99.90;;;;;;5086581;28;20208;-78
2022/04/20 03:05:44;;;;;;;7.50;5.50;;;8.90;99.90;;;;;;5086159;28;20215;-79
2022/04/20 03:08:11;;;;;;;8.47;5.63;;;8.90;99.90;;;;;;5087118;28;20208;-79
2022/04/20 03:10:38;;;;;;;5.80;4.80;;;8.90;99.90;;;;;;5086882;28;20284;-79
2022/04/20 03:13:05;;;;;;;7.07;5.80;;;8.90;99.90;;;;;;5085709;28;20207;-77
2022/04/20 03:15:32;;;;;;;7.07;4.83;;;8.80;99.90;;;;;;5089571;28;20204;-78
2022/04/20 03:17:59;;;;;;;8.00;5.47;;;8.80;99.90;;;;;;5090892;28;20466;-79
2022/04/20 03:20:27;;;;;;;7.87;5.60;;;8.70;99.90;;;;;;5090333;28;20204;-78
2022/04/20 03:22:54;;;;;;;7.57;5.63;;;8.70;99.90;;;;;;5092152;28;20620;-79
2022/04/20 03:25:21;;;;;;;11.43;6.70;;;8.70;99.90;;;;;;5097744;28;20208;-78
2022/04/20 03:27:48;;;;;;;7.27;4.90;;;8.70;99.90;;;;;;5106058;28;20199;-78
2022/04/20 03:30:14;;;;;;;7.40;5.90;;;8.70;99.90;;;;;;5113696;28;20177;-79
2022/04/20 03:32:41;;;;;;;8.17;5.67;;;8.60;99.90;;;;;;5081871;28;20206;-77
2022/04/20 03:35:09;;;;;;;7.47;5.43;;;8.60;99.90;;;;;;5084395;28;20229;-78
2022/04/20 03:37:37;;;;;;;7.97;5.27;;;8.60;99.90;;;;;;5100835;28;20207;-78
2022/04/20 03:40:08;;;;;;;5.93;4.67;;;8.70;99.90;;;;;;5098719;28;20200;-77
2022/04/20 03:42:34;;;;;;;6.60;5.50;;;8.70;99.90;;;;;;5089430;28;20254;-78
2022/04/20 03:45:01;;;;;;;9.63;6.27;;;8.70;99.90;;;;;;5085082;28;20200;-77
2022/04/20 03:47:28;;;;;;;7.37;5.27;;;8.60;99.90;;;;;;5084936;28;20232;-77
2022/04/20 03:49:55;;;;;;;6.93;5.60;;;8.60;99.90;;;;;;5084664;28;20208;-78
2022/04/20 03:52:22;;;;;;;6.73;5.17;;;8.60;99.90;;;;;;5084503;28;20219;-78
2022/04/20 03:54:50;;;;;;;6.20;5.57;;;8.50;99.90;;;;;;5084222;28;20220;-78
2022/04/20 03:57:17;;;;;;;7.77;5.20;;;8.50;99.90;;;;;;5084731;28;20481;-79
2022/04/20 03:59:44;;;;;;;7.70;5.13;;;8.50;99.90;;;;;;5085065;28;20205;-78
2022/04/20 04:02:11;;;;;;;9.23;5.73;;;8.60;99.90;;;;;;5084833;28;20196;-77
2022/04/20 04:04:37;;;;;;;6.97;5.40;;;8.60;99.90;;;;;;5083905;28;20250;-78
2022/04/20 04:07:05;;;;;;;7.80;5.07;;;8.60;99.90;;;;;;5083172;28;20208;-78
2022/04/20 04:09:32;;;;;;;8.03;4.47;;;8.60;99.90;;;;;;5084229;28;20200;-78
2022/04/20 04:12:00;;;;;;;7.53;4.97;;;8.60;99.90;;;;;;5084821;28;20208;-78
2022/04/20 04:14:27;;;;;;;7.33;5.50;;;8.60;99.90;;;;;;5083016;28;20552;-77
2022/04/20 04:16:53;;;;;;;7.40;5.43;;;8.60;99.90;;;;;;5084738;28;20207;-78
2022/04/20 04:19:20;;;;;;;8.10;5.93;;;8.60;99.90;;;;;;5083446;28;20679;-79
2022/04/20 04:21:47;;;;;;;6.93;4.90;;;8.60;99.90;;;;;;5084369;28;20200;-77
2022/04/20 04:24:34;;;;;;;7.93;4.93;;;8.60;99.90;;;;;;5082464;28;20205;-78
2022/04/20 04:27:04;;;;;;;7.87;4.50;;;8.60;99.90;;;;;;5083925;28;20184;-78
2022/04/20 04:29:31;;;;;;;6.50;5.00;;;8.50;99.90;;;;;;5082789;28;20216;-78
2022/04/20 04:31:58;;;;;;;6.20;5.07;;;8.50;99.90;;;;;;5083729;28;20204;-77
2022/04/20 04:34:25;;;;;;;5.80;4.47;;;8.50;99.90;;;;;;5083822;28;20235;-77
2022/04/20 04:36:53;;;;;;;5.90;5.13;;;8.50;99.90;;;;;;5087994;28;20208;-78
2022/04/20 04:39:21;;;;;;;7.07;4.67;;;8.50;99.90;;;;;;5081394;28;20215;-78
2022/04/20 04:41:48;;;;;;;6.27;4.80;;;8.50;99.90;;;;;;5088483;28;20293;-78
2022/04/20 04:44:17;;;;;;;6.33;4.83;;;8.50;99.90;;;;;;5087889;28;20196;-78
2022/04/20 04:49:28;;;;;;;5.77;4.17;;;8.50;99.90;;;;;;5087060;28;20207;-79
2022/04/20 04:51:55;;;;;;;6.50;4.80;;;8.50;99.90;;;;;;5087822;28;20901;-78
2022/04/20 04:54:23;;;;;;;5.77;4.67;;;8.60;99.90;;;;;;5088577;28;20469;-77
2022/04/20 04:56:50;;;;;;;7.23;4.67;;;8.60;99.90;;;;;;5088196;28;20204;-77
2022/04/20 04:59:18;;;;;;;7.10;4.70;;;8.60;99.90;;;;;;5087111;28;20205;-78
2022/04/20 05:01:45;;;;;;;7.30;4.87;;;8.60;99.90;;;;;;5087561;28;20200;-78
2022/04/20 05:04:12;;;;;;;8.23;4.83;;;8.60;99.90;;;;;;5087625;28;20280;-77
2022/04/20 05:06:38;;;;;;;5.80;4.50;;;8.60;99.90;;;;;;5086554;28;20208;-77
2022/04/20 05:09:05;;;;;;;6.83;4.07;;;8.60;99.90;;;;;;5088083;28;20204;-77
2022/04/20 05:11:32;;;;;;;7.03;5.00;;;8.60;99.90;;;;;;5087252;28;20232;-77
2022/04/20 05:13:59;;;;;;;6.37;4.47;;;8.60;99.90;;;;;;5086860;28;20201;-78
2022/04/20 05:16:27;;;;;;;8.07;4.27;;;8.60;99.90;;;;;;5087797;28;20615;-77
2022/04/20 05:18:54;;;;;;;5.97;4.00;;;8.60;99.90;;;;;;5087040;28;20200;-79
2022/04/20 05:21:20;;;;;;;6.87;4.63;;;8.60;99.90;;;;;;5085857;28;20212;-77
2022/04/20 05:23:47;;;;;;;9.57;4.87;;;8.60;99.90;;;;;;5087719;28;20258;-77
2022/04/20 05:26:14;;;;;;;5.63;4.47;;;8.60;99.90;;;;;;5087041;28;20205;-78
2022/04/20 05:28:41;;;;;;;4.87;4.13;;;8.60;99.90;;;;;;5086466;28;20585;-78
2022/04/20 05:31:08;;;;;;;5.10;4.30;;;8.60;99.90;;;;;;5086282;28;20209;-78
2022/04/20 05:33:36;;;;;;;7.60;3.87;;;8.60;99.90;;;;;;5085362;28;20643;-77
2022/04/20 05:36:03;;;;;;;6.13;4.27;;;8.60;99.90;;;;;;5087713;28;20225;-77
2022/04/20 05:43:58;;;;;;;5.53;4.73;;;8.70;99.90;;;;;;5087633;28;20284;-77
2022/04/20 05:46:25;;;;;;;5.20;3.93;;;8.70;99.90;;;;;;5086680;28;20209;-78
2022/04/20 05:48:53;;;;;;;5.53;3.93;;;8.80;99.90;;;;;;5086761;28;20215;-78
2022/04/20 05:51:20;;;;;;;5.37;4.23;;;8.80;99.90;;;;;;5086536;28;20668;-79
2022/04/20 05:53:47;;;;;;;5.23;3.90;;;8.80;99.90;;;;;;5086095;28;20201;-78
2022/04/20 05:56:14;;;;;;;5.10;4.07;;;8.80;99.90;;;;;;5086353;28;20220;-79
2022/04/20 05:58:40;;;;;;;7.30;4.90;;;8.90;99.90;;;;;;5086399;28;20204;-79
2022/04/20 06:01:07;;;;;;;4.23;3.70;;;9.00;99.90;;;;;;5086218;28;20505;-78
2022/04/20 06:03:34;;;;;;;5.20;4.23;;;9.00;99.90;;;;;;5085507;28;20201;-79
2022/04/20 06:06:03;;;;;;;4.93;4.30;;;9.10;99.90;;;;;;5086465;28;20197;-79
2022/04/20 06:08:30;;;;;;;4.30;3.90;;;9.20;99.90;;;;;;5086207;28;20944;-78
2022/04/20 06:10:58;;;;;;;5.27;3.93;;;9.20;99.90;;;;;;5086379;28;20223;-79
2022/04/20 06:13:25;;;;;;;6.87;4.33;;;9.20;99.90;;;;;;5086358;28;20205;-78
2022/04/20 06:15:52;;;;;;;6.37;3.83;;;9.30;99.90;;;;;;5086042;28;20231;-80
2022/04/20 06:18:19;;;;;;;5.43;4.23;;;9.30;99.90;;;;;;5086918;28;20204;-80
2022/04/20 06:20:46;;;;;;;5.27;4.10;;;9.40;99.90;;;;;;5085302;28;20589;-78
2022/04/20 06:23:15;;;;;;;4.80;3.60;;;9.40;99.90;;;;;;5085192;28;20209;-78
2022/04/20 06:25:42;;;;;;;5.33;3.63;;;9.50;99.90;;;;;;5085232;28;20487;-79
2022/04/20 06:28:09;;;;;;;5.03;3.90;;;9.50;99.90;;;;;;5086719;28;20488;-78
2022/04/20 06:30:36;;;;;;;5.93;3.60;;;9.70;99.90;;;;;;5085999;28;20196;-77
2022/04/20 06:33:02;;;;;;;7.07;3.93;;;9.80;99.90;;;;;;5086616;28;20197;-77
2022/04/20 06:35:29;;;;;;;5.60;4.00;;;9.90;99.90;;;;;;5085249;28;20713;-77
2022/04/20 06:37:56;;;;;;;6.60;4.00;;;9.90;99.90;;;;;;5085628;28;20203;-77
2022/04/20 06:40:25;;;;;;;5.20;4.00;;;10.00;99.90;;;;;;5085504;28;20205;-76
2022/04/20 06:42:51;;;;;;;3.93;3.53;;;10.10;99.90;;;;;;5085835;28;20263;-77
2022/04/20 06:45:18;;;;;;;4.77;3.83;;;10.20;99.90;;;;;;5084867;28;20224;-77
2022/04/20 06:47:45;;;;;;;4.57;3.80;;;10.30;99.90;;;;;;5085568;28;20224;-78
2022/04/20 06:50:12;;;;;;;4.13;3.73;;;10.40;99.90;;;;;;5085509;28;20239;-76
2022/04/20 06:58:38;;;;;;;4.10;3.60;;;11.00;99.90;;;;;;5084297;28;20219;-77
2022/04/20 07:01:07;;;;;;;4.97;3.43;;;11.20;99.90;;;;;;5085335;28;20478;-77
2022/04/20 07:03:34;;;;;;;5.07;3.70;;;11.40;99.90;;;;;;5084539;28;20299;-77
2022/04/20 07:06:02;;;;;;;7.93;4.10;;;11.50;99.90;;;;;;5085139;28;20200;-77
2022/04/20 07:08:29;;;;;;;6.73;3.30;;;11.70;99.90;;;;;;5084386;28;20233;-78
2022/04/20 07:10:58;;;;;;;3.77;3.37;;;12.00;99.90;;;;;;5085346;28;20196;-78
2022/04/20 07:17:16;;;;;;;3.90;3.10;;;12.50;99.90;;;;;;4845982;29;20577;-78
2022/04/20 07:19:43;;;;;;;5.77;3.00;;;12.90;99.90;;;;;;4968317;28;20211;-78
2022/04/20 07:22:10;;;;;;;4.20;3.30;;;13.10;99.90;;;;;;5054239;28;20638;-79
2022/04/20 07:24:37;;;;;;;8.00;3.50;;;13.40;99.90;;;;;;5085491;28;20209;-77
2022/04/20 07:27:06;;;;;;;4.97;3.30;;;13.60;99.90;;;;;;5077871;28;20491;-78
2022/04/20 07:29:32;;;;;;;4.20;3.03;;;13.70;99.90;;;;;;5085603;28;20201;-78
2022/04/20 07:31:59;;;;;;;6.30;3.23;;;13.90;99.90;;;;;;5085488;28;20517;-78
2022/04/20 07:34:26;;;;;;;3.60;3.00;;;14.10;99.90;;;;;;5048840;28;20235;-79
2022/04/20 07:36:53;;;;;;;5.03;3.37;;;14.20;99.90;;;;;;5084979;28;20193;-78
2022/04/20 07:39:20;;;;;;;5.05;3.60;;;14.40;99.90;;;;;;5084994;28;20209;-79
2022/04/20 07:41:46;;;;;;;3.50;3.20;;;14.50;99.90;;;;;;5083446;28;20247;-79
2022/04/20 07:44:14;;;;;;;4.70;2.95;;;14.60;99.90;;;;;;5085095;28;20200;-78
2022/04/20 07:46:41;;;;;;;3.90;3.00;;;14.60;99.90;;;;;;5084531;28;20200;-77
2022/04/20 07:51:48;;;;;;;7.37;3.30;;;14.60;99.90;;;;;;5083907;28;20200;-78
2022/04/20 07:54:15;;;;;;;4.15;3.75;;;14.70;99.90;;;;;;5082659;28;20231;-78
2022/04/20 07:56:42;;;;;;;4.73;3.67;;;14.80;99.90;;;;;;5084093;28;20236;-79
2022/04/20 07:59:09;;;;;;;4.60;3.35;;;15.00;99.90;;;;;;5083202;28;20650;-79
2022/04/20 08:01:40;;;;;;;2.90;2.70;;;15.10;99.90;;;;;;5084298;28;20200;-79
2022/04/20 08:04:06;;;;;;;4.63;2.90;;;15.10;99.90;;;;;;5074570;28;20208;-79
2022/04/20 08:06:33;;;;;;;3.10;2.80;;;15.40;99.90;;;;;;5073085;28;20767;-78
2022/04/20 08:09:00;;;;;;;3.80;2.90;;;15.40;99.90;;;;;;5070881;28;20296;-80
2022/04/20 08:11:27;;;;;;;5.80;3.08;;;15.50;99.90;;;;;;5075630;28;20211;-79
2022/04/20 08:14:13;;;;;;;3.20;2.88;;;15.40;99.90;;;;;;5073485;28;20281;-79
2022/04/20 08:16:41;;;;;;;4.38;2.50;;;15.60;99.90;;;;;;5073785;28;20591;-78
2022/04/20 08:19:08;;;;;;;3.20;2.67;;;15.60;99.90;;;;;;5074481;28;20224;-80
2022/04/20 08:21:35;;;;;;;3.83;3.00;;;15.90;99.90;;;;;;5073286;28;20211;-81
2022/04/20 08:24:02;;;;;;;3.67;2.60;;;15.80;99.90;;;;;;5074405;28;20213;-79
2022/04/20 08:26:29;;;;;;;2.88;2.50;;;15.90;99.90;;;;;;5074629;28;20604;-80
2022/04/20 08:28:56;;;;;;;2.95;2.65;;;15.80;99.90;;;;;;5067714;28;20608;-79
2022/04/20 08:31:23;;;;;;;3.25;2.95;;;16.00;99.90;;;;;;5068845;28;20205;-79
2022/04/20 08:33:51;;;;;;;4.60;2.95;;;16.10;99.90;;;;;;5071777;28;20236;-79
2022/04/20 08:36:18;;;;;;;4.03;3.08;;;16.10;99.90;;;;;;5073475;28;20987;-81
2022/04/20 08:38:45;;;;;;;4.78;3.20;;;16.40;99.90;;;;;;5072851;28;20220;-80
2022/04/20 08:41:14;;;;;;;3.03;2.72;;;16.40;99.90;;;;;;5069551;28;20278;-82
2022/04/20 08:43:42;;;;;;;3.55;2.92;;;16.30;99.90;;;;;;5083211;28;20197;-80
2022/04/20 08:46:10;;;;;;;4.93;2.80;;;16.30;99.90;;;;;;5062211;28;20281;-78
2022/04/20 08:48:38;;;;;;;3.13;2.83;;;16.50;99.90;;;;;;5075200;28;20613;-80
2022/04/20 08:51:07;;;;;;;4.65;3.10;;;16.60;99.90;;;;;;5073183;28;20209;-81
2022/04/20 08:53:35;;;;;;;3.90;2.80;;;16.60;99.90;;;;;;5069234;28;20909;-81
2022/04/20 08:58:49;;;;;;;6.93;3.78;;;16.90;99.90;;;;;;5071313;28;20192;-80
2022/04/20 09:01:17;;;;;;;4.55;3.10;;;16.70;99.90;;;;;;5074821;28;20364;-80
2022/04/20 09:03:46;;;;;;;4.85;3.30;;;16.70;99.90;;;;;;5068496;28;20205;-79
2022/04/20 09:06:15;;;;;;;3.65;2.63;;;17.10;99.90;;;;;;5073273;28;20204;-81
2022/04/20 09:08:43;;;;;;;3.50;2.38;;;17.10;99.90;;;;;;5069713;28;20220;-80
2022/04/20 09:11:09;;;;;;;3.38;2.72;;;16.90;99.90;;;;;;5073710;28;20210;-79
2022/04/20 09:13:42;;;;;;;5.05;3.05;;;17.00;99.90;;;;;;5071214;28;20204;-81
2022/04/20 09:16:10;;;;;;;3.85;2.78;;;17.30;99.90;;;;;;5066428;28;20218;-80
2022/04/20 09:18:38;;;;;;;3.35;2.50;;;17.00;99.90;;;;;;5067625;28;20220;-79
2022/04/20 09:21:06;;;;;;;2.42;2.20;;;17.20;99.90;;;;;;5071438;28;20220;-80
2022/04/20 09:23:34;;;;;;;4.60;2.88;;;17.50;99.90;;;;;;5075289;28;20291;-80
2022/04/20 09:26:08;;;;;;;3.72;3.33;;;17.80;99.90;;;;;;5078280;28;20725;-81
2022/04/20 09:28:36;;;;;;;3.17;2.88;;;17.80;99.90;;;;;;5073719;28;20306;-80
2022/04/20 09:31:04;;;;;;;3.22;2.65;;;17.80;99.90;;;;;;5073802;28;20201;-79
2022/04/20 09:33:49;;;;;;;6.50;3.10;;;17.30;99.90;;;;;;5069379;28;20278;-79
2022/04/20 09:36:16;;;;;;;4.50;2.55;;;17.40;99.90;;;;;;5086207;28;20680;-79
2022/04/20 09:39:03;;;;;;;7.28;4.10;;;17.40;99.90;;;;;;5087475;28;20200;-79
2022/04/20 09:41:30;;;;;;;3.33;2.58;;;17.00;99.90;;;;;;5087836;28;20236;-78
2022/04/20 09:44:10;;;;;;;3.47;2.72;;;17.10;99.90;;;;;;5087304;28;20216;-80
2022/04/20 09:49:57;;;;;;;3.50;2.67;;;17.30;99.90;;;;;;5044922;28;20277;-81
2022/04/20 09:52:24;;;;;;;2.95;2.50;;;17.50;99.90;;;;;;5043755;28;20324;-82
2022/04/20 09:54:55;;;;;;;2.97;2.30;;;17.60;99.90;;;;;;5065178;28;20205;-79
2022/04/20 09:57:23;;;;;;;3.17;2.70;;;17.90;99.90;;;;;;5081408;28;20233;-80
2022/04/20 09:59:57;;;;;;;6.47;2.75;;;17.50;99.90;;;;;;5085192;28;20666;-80
2022/04/20 10:02:25;;;;;;;3.30;2.60;;;17.30;99.90;;;;;;5079211;28;20227;-80
2022/04/20 10:04:52;;;;;;;4.03;2.72;;;17.30;99.90;;;;;;5080710;28;20267;-80
2022/04/20 10:07:19;;;;;;;3.53;2.60;;;17.10;99.90;;;;;;5071508;28;20223;-79
2022/04/20 10:09:46;;;;;;;6.97;2.70;;;17.60;99.90;;;;;;5085875;28;20212;-79
2022/04/20 10:12:17;;;;;;;5.20;3.10;;;17.80;99.90;;;;;;5085844;28;20288;-80
2022/04/20 10:17:37;;;;;;;4.82;3.00;;;17.80;99.90;;;;;;5086047;28;20299;-79
2022/04/20 10:20:05;;;;;;;5.55;3.00;;;17.70;99.90;;;;;;5086913;28;20607;-80
2022/04/20 10:22:33;;;;;;;4.43;3.15;;;17.60;99.90;;;;;;5086511;28;20235;-80
2022/04/20 10:25:02;;;;;;;3.47;3.08;;;17.80;99.90;;;;;;5092629;28;20212;-78
2022/04/20 10:27:41;;;;;;;4.20;3.10;;;18.10;99.90;;;;;;5088327;28;20359;-83
2022/04/20 10:30:15;;;;;;;3.38;3.08;;;18.20;99.90;;;;;;5087771;28;20220;-78
2022/04/20 10:32:51;;;;;;;3.30;3.00;;;17.90;99.90;;;;;;5086839;28;20588;-83
2022/04/20 10:35:18;;;;;;;4.40;3.45;;;17.90;99.90;;;;;;5087391;28;20202;-83
2022/04/20 10:38:09;;;;;;;4.18;3.05;;;18.10;99.90;;;;;;5086899;28;20239;-81
2022/04/20 10:40:56;;;;;;;2.80;2.45;;;18.10;99.90;;;;;;5086473;28;20200;-82
2022/04/20 10:43:26;;;;;;;4.50;2.85;;;17.90;99.90;;;;;;5087052;28;20278;-80
2022/04/20 10:46:20;;;;;;;5.15;3.10;;;17.60;99.90;;;;;;5087915;28;20196;-80
2022/04/20 10:48:49;;;;;;;3.70;2.67;;;17.50;99.90;;;;;;5087211;28;20208;-83
2022/04/20 10:51:19;;;;;;;3.20;2.45;;;17.70;99.90;;;;;;5086370;28;20211;-82
2022/04/20 10:53:48;;;;;;;3.60;3.08;;;17.80;99.90;;;;;;5087918;28;20215;-81
2022/04/20 10:56:17;;;;;;;6.10;2.92;;;17.70;99.90;;;;;;5088177;28;20251;-80
2022/04/20 10:59:09;;;;;;;3.58;2.80;;;17.70;99.90;;;;;;5086774;28;20219;-80
2022/04/20 11:02:09;;;;;;;4.28;2.70;;;17.70;99.90;;;;;;5088983;28;20201;-83
2022/04/20 11:04:41;;;;;;;3.83;2.90;;;17.50;99.90;;;;;;5003045;28;20240;-80
2022/04/20 11:07:20;;;;;;;4.10;2.90;;;17.40;99.90;;;;;;5003791;28;20199;-79
2022/04/20 11:09:49;;;;;;;3.20;2.70;;;17.90;99.90;;;;;;5050895;28;20940;-78
2022/04/20 11:21:11;;;;;;;2.78;2.20;;;18.20;99.90;;;;;;5068885;28;20246;-82
2022/04/20 11:23:55;;;;;;;1.58;1.48;;;18.20;99.90;;;;;;5074388;28;20212;-81
2022/04/20 11:26:24;;;;;;;4.13;1.90;;;18.60;99.90;;;;;;5087765;28;20195;-81
2022/04/20 11:28:51;;;;;;;2.72;2.22;;;18.60;99.90;;;;;;5086391;28;20208;-80
2022/04/20 11:31:20;;;;;;;3.03;1.70;;;18.60;99.90;;;;;;5086095;28;20196;-80
2022/04/20 11:33:47;;;;;;;4.28;2.10;;;18.60;99.90;;;;;;5086983;28;20231;-80
2022/04/20 11:36:15;;;;;;;2.13;1.92;;;18.70;99.90;;;;;;5085614;28;20232;-81
2022/04/20 11:38:43;;;;;;;3.60;2.13;;;18.50;99.90;;;;;;5087448;28;20208;-83
2022/04/20 11:41:11;;;;;;;3.05;1.90;;;18.30;99.90;;;;;;5086869;28;20209;-80
2022/04/20 11:43:38;;;;;;;3.00;2.08;;;18.30;99.90;;;;;;5085797;28;20307;-79
2022/04/20 11:46:05;;;;;;;3.35;1.80;;;18.00;99.90;;;;;;5084420;28;20939;-78
2022/04/20 11:48:35;;;;;;;4.97;1.95;;;18.30;99.90;;;;;;5085096;28;20204;-80
2022/04/20 11:51:03;;;;;;;2.47;2.00;;;18.50;99.90;;;;;;5067610;28;20205;-84
2022/04/20 11:53:33;;;;;;;2.85;1.58;;;18.40;99.90;;;;;;5066241;28;20209;-79
2022/04/20 11:56:01;;;;;;;2.28;1.58;;;18.50;99.90;;;;;;5079106;28;20262;-81
2022/04/20 11:58:28;;;;;;;1.52;1.30;;;18.70;99.90;;;;;;5087858;28;20197;-81
2022/04/20 12:01:02;;;;;;;1.85;1.75;;;18.80;99.90;;;;;;5086526;28;20203;-79
2022/04/20 12:03:36;;;;;;;3.25;1.50;;;19.10;99.90;;;;;;5093340;28;20599;-80
2022/04/20 12:06:05;;;;;;;1.75;1.35;;;19.20;99.90;;;;;;5090566;28;20188;-79
2022/04/20 12:08:33;;;;;;;2.50;1.50;;;18.90;99.90;;;;;;5090762;28;20209;-81
2022/04/20 12:11:03;;;;;;;1.83;1.38;;;18.80;99.90;;;;;;5091457;28;20204;-78
2022/04/20 12:13:31;;;;;;;2.90;1.77;;;18.90;99.90;;;;;;5099495;28;20608;-82
2022/04/20 12:16:06;;;;;;;2.13;1.70;;;18.80;99.90;;;;;;5093819;28;20648;-78
2022/04/20 12:18:36;;;;;;;1.52;1.40;;;18.80;99.90;;;;;;5091674;28;20211;-80
2022/04/20 12:21:07;;;;;;;1.80;1.50;;;18.70;99.90;;;;;;5094934;28;20616;-81
2022/04/20 12:23:35;;;;;;;2.65;1.30;;;18.70;99.90;;;;;;5097549;28;20291;-82
2022/04/20 12:26:04;;;;;;;2.95;1.38;;;18.50;99.90;;;;;;5092352;28;20212;-80
2022/04/20 12:28:43;;;;;;;1.85;1.70;;;18.40;99.90;;;;;;5094366;28;20485;-80
2022/04/20 12:31:12;;;;;;;2.10;1.58;;;18.30;99.90;;;;;;5092438;28;20216;-80
2022/04/20 12:33:42;;;;;;;2.75;1.58;;;18.40;99.90;;;;;;5090486;28;20225;-79
2022/04/20 12:36:11;;;;;;;2.28;1.50;;;18.50;99.90;;;;;;5089123;28;20880;-82
2022/04/20 12:38:50;;;;;;;3.95;1.63;;;18.60;99.90;;;;;;5096961;28;20203;-81
2022/04/20 12:41:37;;;;;;;2.25;1.70;;;18.80;99.90;;;;;;5092514;28;20264;-82
2022/04/20 12:44:24;;;;;;;4.88;1.67;;;18.80;99.90;;;;;;5071725;28;20882;-81
2022/04/20 12:46:50;;;;;;;2.63;1.92;;;18.90;99.90;;;;;;5087560;28;20219;-81
2022/04/20 12:49:24;;;;;;;1.95;1.60;;;18.80;99.90;;;;;;5082954;28;20200;-79
2022/04/20 12:51:51;;;;;;;2.05;1.85;;;18.60;99.90;;;;;;5083784;28;20207;-80
2022/04/20 12:54:24;;;;;;;2.22;1.67;;;18.80;99.90;;;;;;5083914;28;20213;-83
2022/04/20 13:02:18;;;;;;;1.75;1.50;;;18.50;99.90;;;;;;5045634;28;20196;-84
2022/04/20 13:04:50;;;;;;;4.03;1.75;;;18.50;99.90;;;;;;5090121;28;20208;-80
2022/04/20 13:07:17;;;;;;;3.05;1.80;;;18.40;99.90;;;;;;5090119;28;20203;-79
2022/04/20 13:09:44;;;;;;;2.95;1.75;;;18.30;99.90;;;;;;5086969;28;20530;-80
2022/04/20 13:12:11;;;;;;;2.42;1.77;;;18.50;99.90;;;;;;5089487;28;20208;-83
2022/04/20 13:14:39;;;;;;;1.98;1.80;;;18.60;99.90;;;;;;5090257;28;20290;-81
2022/04/20 13:17:09;;;;;;;3.63;1.63;;;18.40;99.90;;;;;;5088274;28;20311;-80
2022/04/20 13:19:37;;;;;;;4.45;1.80;;;18.30;99.90;;;;;;5091065;28;20287;-82
2022/04/20 13:22:06;;;;;;;1.50;1.40;;;18.50;99.90;;;;;;5090127;28;20200;-83
2022/04/20 13:30:00;;;;;;;2.05;1.77;;;18.30;99.90;;;;;;5071127;28;20207;-80
2022/04/20 13:32:27;;;;;;;2.13;1.75;;;18.20;99.90;;;;;;5070145;28;20468;-81
2022/04/20 13:34:54;;;;;;;2.70;1.90;;;18.30;99.90;;;;;;5071153;28;20213;-78
2022/04/20 13:37:23;;;;;;;2.15;1.90;;;18.40;99.90;;;;;;5070770;28;20233;-82
2022/04/20 13:39:50;;;;;;;2.20;1.80;;;18.50;99.90;;;;;;5093458;28;20393;-84
2022/04/20 13:42:17;;;;;;;3.10;1.73;;;18.70;99.90;;;;;;5092931;28;20235;-83
2022/04/20 13:44:44;;;;;;;3.70;1.75;;;18.70;99.90;;;;;;5092580;28;20207;-84
2022/04/20 13:47:10;;;;;;;2.85;1.80;;;18.70;99.90;;;;;;5091839;28;20254;-83
2022/04/20 13:49:37;;;;;;;2.10;1.58;;;18.70;99.90;;;;;;5093054;28;20201;-81